createdAt,value
2022-11-13T00:02:27.657Z,61.63
2022-11-13T00:05:33.698Z,60.39
2022-11-13T00:08:40.054Z,59.87
2022-11-13T00:11:45.651Z,59.80
2022-11-13T00:14:51.192Z,59.42
2022-11-13T00:18:02.558Z,60.05
2022-11-13T00:21:10.158Z,61.86
2022-11-13T00:24:15.414Z,60.88
2022-11-13T00:27:20.958Z,60.14
2022-11-13T00:30:26.503Z,60.11
2022-11-13T00:37:00.241Z,60.00
2022-11-13T00:40:07.105Z,61.19
2022-11-13T00:43:12.864Z,62.40
2022-11-13T00:46:18.148Z,62.79
2022-11-13T00:49:25.054Z,63.02
2022-11-13T00:52:30.571Z,63.04
2022-11-13T00:55:36.576Z,62.47
2022-11-13T00:58:42.208Z,62.29
2022-11-13T01:01:47.732Z,62.51
2022-11-13T01:04:54.616Z,61.30
2022-11-13T01:08:00.138Z,60.71
2022-11-13T01:11:10.952Z,60.30
2022-11-13T01:14:18.014Z,60.32
2022-11-13T01:17:23.563Z,60.16
2022-11-13T01:20:30.582Z,60.03
2022-11-13T01:23:36.591Z,60.34
2022-11-13T01:26:43.142Z,60.30
2022-11-13T01:29:48.443Z,60.13
2022-11-13T01:32:54.016Z,59.58
2022-11-13T01:36:06.271Z,59.52
2022-11-13T01:39:12.542Z,59.94
2022-11-13T01:42:17.917Z,59.94
2022-11-13T01:46:06.075Z,60.05
2022-11-13T01:49:26.044Z,60.66
2022-11-13T01:52:37.626Z,61.01
2022-11-13T01:55:43.265Z,60.89
2022-11-13T01:58:55.408Z,60.90
2022-11-13T02:02:01.193Z,60.94
2022-11-13T02:05:09.238Z,60.93
2022-11-13T02:08:16.236Z,60.95
2022-11-13T02:11:22.364Z,61.13
2022-11-13T02:14:30.740Z,61.56
2022-11-13T02:17:41.863Z,62.25
2022-11-13T02:20:58.909Z,62.33
2022-11-13T02:24:22.085Z,62.28
2022-11-13T02:27:32.280Z,62.11
2022-11-13T02:30:38.532Z,61.85
2022-11-13T02:33:44.079Z,61.79
2022-11-13T02:36:49.405Z,61.79
2022-11-13T02:39:56.130Z,61.75
2022-11-13T02:43:01.520Z,61.64
2022-11-13T02:46:06.989Z,61.91
2022-11-13T02:49:12.825Z,61.96
2022-11-13T02:52:18.386Z,61.61
2022-11-13T02:55:25.440Z,61.72
2022-11-13T02:58:31.248Z,61.75
2022-11-13T03:01:36.751Z,61.97
2022-11-13T03:05:10.827Z,61.82
2022-11-13T03:08:08.369Z,62.03
2022-11-13T03:11:15.294Z,62.01
2022-11-13T03:14:21.655Z,61.62
2022-11-13T03:17:27.115Z,61.59
2022-11-13T03:20:32.490Z,61.58
2022-11-13T03:23:37.898Z,61.51
2022-11-13T03:26:45.095Z,61.13
2022-11-13T03:29:50.928Z,61.04
2022-11-13T03:32:57.024Z,61.18
2022-11-13T03:36:02.734Z,61.26
2022-11-13T03:39:08.647Z,61.24
2022-11-13T03:42:15.850Z,60.98
2022-11-13T03:45:21.506Z,61.36
2022-11-13T03:48:27.626Z,61.24
2022-11-13T03:51:33.599Z,60.97
2022-11-13T03:54:38.905Z,61.11
2022-11-13T03:57:45.640Z,60.92
2022-11-13T04:00:52.423Z,60.93
2022-11-13T04:03:58.019Z,61.24
2022-11-13T04:07:03.646Z,61.54
2022-11-13T04:10:09.914Z,61.88
2022-11-13T04:13:17.281Z,61.72
2022-11-13T04:16:23.281Z,61.65
2022-11-13T04:19:29.252Z,62.02
2022-11-13T04:22:34.670Z,62.06
2022-11-13T04:25:40.071Z,62.20
2022-11-13T04:28:46.821Z,62.04
2022-11-13T04:31:52.266Z,62.12
2022-11-13T04:34:57.858Z,61.98
2022-11-13T04:38:03.384Z,62.06
2022-11-13T04:41:26.741Z,62.48
2022-11-13T04:44:34.183Z,62.50
2022-11-13T04:47:39.879Z,62.30
2022-11-13T04:50:45.461Z,62.35
2022-11-13T04:53:51.062Z,62.04
2022-11-13T04:56:56.808Z,61.88
2022-11-13T05:00:05.053Z,61.97
2022-11-13T05:03:10.630Z,62.31
2022-11-13T05:06:18.307Z,62.35
2022-11-13T05:09:23.731Z,62.55
2022-11-13T05:12:29.167Z,62.23
2022-11-13T05:15:36.058Z,62.15
2022-11-13T05:18:42.636Z,62.24
2022-11-13T05:21:48.535Z,62.25
2022-11-13T05:24:54.183Z,62.50
2022-11-13T05:28:00.098Z,62.77
2022-11-13T05:31:08.908Z,62.58
2022-11-13T05:34:15.000Z,62.65
2022-11-13T05:37:20.641Z,62.80
2022-11-13T05:40:26.335Z,62.96
2022-11-13T05:43:31.978Z,62.81
2022-11-13T05:46:38.916Z,62.98
2022-11-13T05:49:44.956Z,62.84
2022-11-13T05:52:50.537Z,62.68
2022-11-13T05:55:56.293Z,62.45
2022-11-13T05:59:02.800Z,62.68
2022-11-13T06:02:09.931Z,63.09
2022-11-13T06:05:16.295Z,63.41
2022-11-13T06:08:22.504Z,63.12
2022-11-13T06:11:30.298Z,63.74
2022-11-13T06:14:35.989Z,62.65
2022-11-13T06:17:47.114Z,63.27
2022-11-13T06:20:52.593Z,63.02
2022-11-13T06:23:59.065Z,60.94
2022-11-13T06:27:05.163Z,60.60
2022-11-13T06:30:11.924Z,60.38
2022-11-13T06:33:19.012Z,60.17
2022-11-13T06:36:26.272Z,60.16
2022-11-13T06:39:31.806Z,60.75
2022-11-13T06:42:37.251Z,60.85
2022-11-13T06:45:42.775Z,60.57
2022-11-13T06:48:49.754Z,61.19
2022-11-13T06:51:55.533Z,61.15
2022-11-13T06:55:01.577Z,61.10
2022-11-13T06:58:07.419Z,60.31
2022-11-13T07:01:17.300Z,60.82
2022-11-13T07:04:26.593Z,60.68
2022-11-13T07:07:31.933Z,60.60
2022-11-13T07:10:37.866Z,60.26
2022-11-13T07:13:44.437Z,60.58
2022-11-13T07:17:08.530Z,61.18
2022-11-13T07:20:34.588Z,61.38
2022-11-13T07:23:56.181Z,61.48
2022-11-13T07:27:01.871Z,62.00
2022-11-13T07:30:08.396Z,61.23
2022-11-13T07:33:14.231Z,61.29
2022-11-13T07:36:21.154Z,61.87
2022-11-13T07:39:26.695Z,60.48
2022-11-13T07:42:32.093Z,61.37
2022-11-13T07:45:37.674Z,61.87
2022-11-13T07:48:43.259Z,62.31
2022-11-13T07:51:49.920Z,62.83
2022-11-13T07:54:55.612Z,61.45
2022-11-13T07:58:02.088Z,61.91
2022-11-13T08:01:08.090Z,62.19
2022-11-13T08:04:13.758Z,61.98
2022-11-13T08:07:20.769Z,62.79
2022-11-13T08:10:26.787Z,62.85
2022-11-13T08:13:33.329Z,64.38
2022-11-13T08:16:39.419Z,64.38
2022-11-13T08:19:48.436Z,64.02
2022-11-13T08:22:58.598Z,64.01
2022-11-13T08:26:08.375Z,64.51
2022-11-13T08:29:17.923Z,63.82
2022-11-13T08:32:23.909Z,63.80
2022-11-13T08:35:32.434Z,63.71
2022-11-13T08:38:39.641Z,63.34
2022-11-13T08:41:45.380Z,63.23
2022-11-13T08:44:50.945Z,63.54
2022-11-13T08:48:09.798Z,63.67
2022-11-13T08:51:17.019Z,64.11
2022-11-13T08:54:41.542Z,64.79
2022-11-13T08:57:46.811Z,64.98
2022-11-13T09:00:52.198Z,64.08
2022-11-13T09:04:04.940Z,62.55
2022-11-13T09:07:13.375Z,62.82
2022-11-13T09:10:25.242Z,61.39
2022-11-13T09:13:33.123Z,62.40
2022-11-13T09:16:38.751Z,64.14
2022-11-13T09:19:54.348Z,62.73
2022-11-13T09:23:29.827Z,63.20
2022-11-13T09:26:47.158Z,61.07
2022-11-13T09:29:56.559Z,61.11
2022-11-13T09:33:02.717Z,60.95
2022-11-13T09:36:12.744Z,60.45
2022-11-13T09:39:18.489Z,61.94
2022-11-13T09:42:29.392Z,62.34
2022-11-13T09:45:35.202Z,61.46
2022-11-13T09:48:45.240Z,60.62
2022-11-13T09:51:54.101Z,61.63
2022-11-13T09:55:00.819Z,61.41
2022-11-13T09:58:15.009Z,61.53
2022-11-13T10:01:29.640Z,60.94
2022-11-13T10:04:57.781Z,61.13
2022-11-13T10:08:08.864Z,59.90
2022-11-13T10:11:19.691Z,60.16
2022-11-13T10:14:31.041Z,59.78
2022-11-13T10:17:40.524Z,61.07
2022-11-13T10:20:50.434Z,61.55
2022-11-13T10:23:57.936Z,61.52
2022-11-13T10:27:03.513Z,61.85
2022-11-13T10:30:18.468Z,62.32
2022-11-13T10:33:25.486Z,62.15
2022-11-13T10:36:39.029Z,62.32
2022-11-13T10:39:44.920Z,61.83
2022-11-13T10:42:50.726Z,61.49
2022-11-13T10:45:59.880Z,61.79
2022-11-13T10:49:14.723Z,62.26
2022-11-13T10:52:22.583Z,61.93
2022-11-13T10:55:38.972Z,61.87
2022-11-13T10:58:44.572Z,61.70
2022-11-13T11:01:51.414Z,61.44
2022-11-13T11:05:05.624Z,61.84
2022-11-13T11:08:11.993Z,62.37
2022-11-13T11:11:37.174Z,62.91
2022-11-13T11:14:48.849Z,62.68
2022-11-13T11:18:01.299Z,62.98
2022-11-13T11:21:10.854Z,62.17
2022-11-13T11:24:22.162Z,61.64
2022-11-13T11:27:35.570Z,61.13
2022-11-13T11:30:48.583Z,60.96
2022-11-13T11:34:01.797Z,61.40
2022-11-13T11:37:14.637Z,60.90
2022-11-13T11:40:29.255Z,61.02
2022-11-13T11:43:43.608Z,61.03
2022-11-13T11:46:49.683Z,61.75
2022-11-13T11:49:56.773Z,61.61
2022-11-13T11:53:07.588Z,62.01
2022-11-13T11:56:26.323Z,61.75
2022-11-13T12:00:07.718Z,62.09
2022-11-13T12:04:07.771Z,62.09
2022-11-13T12:07:31.531Z,61.43
2022-11-13T12:10:45.901Z,62.18
2022-11-13T12:14:00.362Z,62.07
2022-11-13T12:17:21.523Z,62.05
2022-11-13T12:20:38.134Z,62.12
2022-11-13T12:24:13.114Z,61.89
2022-11-13T12:27:27.610Z,62.12
2022-11-13T12:30:43.839Z,61.69
2022-11-13T12:34:01.250Z,61.85
2022-11-13T12:37:13.829Z,61.81
2022-11-13T12:40:29.731Z,61.92
2022-11-13T12:43:55.587Z,61.93
2022-11-13T12:47:08.755Z,62.10
2022-11-13T12:50:31.700Z,61.75
2022-11-13T12:53:50.764Z,62.67
2022-11-13T12:57:09.137Z,62.43
2022-11-13T13:00:27.054Z,62.62
2022-11-13T13:07:08.194Z,62.39
2022-11-13T13:10:22.721Z,62.17
2022-11-13T13:13:38.363Z,62.88
2022-11-13T13:16:44.068Z,61.87
2022-11-13T13:19:59.835Z,61.95
2022-11-13T13:23:08.597Z,62.19
2022-11-13T13:26:18.506Z,61.91
2022-11-13T13:29:26.613Z,61.75
2022-11-13T13:32:40.535Z,62.06
2022-11-13T13:35:52.898Z,62.32
2022-11-13T13:39:04.268Z,61.90
2022-11-13T13:42:24.742Z,61.64
2022-11-13T13:45:42.957Z,61.67
2022-11-13T13:48:50.744Z,61.87
2022-11-13T13:51:58.127Z,61.68
2022-11-13T13:55:05.654Z,61.42
2022-11-13T13:58:16.266Z,61.41
2022-11-13T14:01:31.146Z,61.13
2022-11-13T14:04:45.909Z,61.33
2022-11-13T14:07:51.330Z,61.38
2022-11-13T14:10:56.762Z,61.15
2022-11-13T14:14:09.051Z,61.40
2022-11-13T14:17:25.226Z,61.39
2022-11-13T14:20:31.224Z,61.31
2022-11-13T14:23:38.877Z,61.17
2022-11-13T14:26:45.193Z,61.47
2022-11-13T14:29:53.222Z,61.27
2022-11-13T14:33:03.297Z,61.21
2022-11-13T14:36:09.550Z,61.16
2022-11-13T14:39:23.271Z,60.99
2022-11-13T14:42:36.796Z,61.05
2022-11-13T14:45:53.705Z,61.21
2022-11-13T14:49:00.748Z,61.36
2022-11-13T14:52:07.136Z,61.41
2022-11-13T14:55:24.928Z,61.14
2022-11-13T14:58:33.255Z,62.18
2022-11-13T15:01:39.233Z,62.25
2022-11-13T15:04:46.166Z,61.94
2022-11-13T15:07:52.989Z,62.12
2022-11-13T15:10:58.613Z,61.82
2022-11-13T15:14:04.724Z,61.72
2022-11-13T15:17:16.860Z,61.76
2022-11-13T15:20:27.068Z,61.93
2022-11-13T15:23:32.993Z,61.66
2022-11-13T15:26:39.071Z,61.77
2022-11-13T15:29:45.488Z,61.94
2022-11-13T15:32:53.984Z,61.96
2022-11-13T15:36:01.694Z,61.82
2022-11-13T15:39:12.691Z,62.10
2022-11-13T15:42:29.793Z,61.94
2022-11-13T15:45:39.882Z,61.91
2022-11-13T15:48:49.704Z,61.91
2022-11-13T15:51:56.864Z,61.99
2022-11-13T15:55:04.504Z,61.87
2022-11-13T15:58:16.057Z,61.75
2022-11-13T16:01:22.397Z,61.80
2022-11-13T16:04:44.090Z,61.47
2022-11-13T16:07:55.269Z,61.58
2022-11-13T16:11:00.846Z,61.55
2022-11-13T16:14:06.880Z,61.36
2022-11-13T16:17:16.630Z,61.52
2022-11-13T16:20:22.256Z,61.73
2022-11-13T16:23:30.014Z,62.15
2022-11-13T16:26:36.286Z,61.96
2022-11-13T16:29:42.080Z,61.96
2022-11-13T16:32:47.867Z,62.14
2022-11-13T16:35:55.043Z,62.08
2022-11-13T16:39:02.279Z,62.00
2022-11-13T16:42:08.215Z,61.99
2022-11-13T16:45:13.567Z,62.03
2022-11-13T16:48:18.851Z,62.04
2022-11-13T16:51:24.521Z,62.03
2022-11-13T16:54:31.502Z,62.31
2022-11-13T16:57:37.562Z,62.65
2022-11-13T17:00:43.572Z,62.43
2022-11-13T17:03:50.332Z,62.14
2022-11-13T17:06:57.856Z,62.05
2022-11-13T17:13:31.343Z,62.39
2022-11-13T17:16:36.742Z,62.70
2022-11-13T17:19:44.125Z,63.09
2022-11-13T17:22:49.693Z,63.10
2022-11-13T17:25:56.806Z,63.18
2022-11-13T17:29:05.196Z,63.17
2022-11-13T17:32:10.841Z,63.41
2022-11-13T17:35:16.761Z,64.00
2022-11-13T17:38:22.496Z,64.62
2022-11-13T17:41:29.278Z,64.70
2022-11-13T17:44:34.188Z,65.96
2022-11-13T17:47:39.405Z,65.34
2022-11-13T17:50:44.596Z,65.31
2022-11-13T17:53:50.186Z,65.12
2022-11-13T17:56:57.156Z,65.30
2022-11-13T18:00:03.258Z,64.85
2022-11-13T18:03:08.761Z,64.51
2022-11-13T18:06:19.549Z,64.25
2022-11-13T18:09:25.804Z,64.85
2022-11-13T18:12:32.847Z,65.22
2022-11-13T18:15:39.344Z,65.18
2022-11-13T18:18:45.448Z,64.61
2022-11-13T18:21:51.217Z,64.42
2022-11-13T18:24:56.594Z,65.71
2022-11-13T18:28:03.056Z,66.03
2022-11-13T18:31:09.215Z,66.22
2022-11-13T18:34:17.690Z,66.16
2022-11-13T18:37:23.679Z,66.04
2022-11-13T18:40:29.156Z,65.87
2022-11-13T18:43:36.984Z,65.81
2022-11-13T18:46:42.591Z,65.24
2022-11-13T18:49:48.330Z,65.55
2022-11-13T18:52:56.361Z,65.02
2022-11-13T18:56:02.580Z,65.08
2022-11-13T18:59:11.047Z,65.12
2022-11-13T19:02:16.889Z,64.77
2022-11-13T19:05:22.485Z,64.73
2022-11-13T19:08:28.208Z,65.20
2022-11-13T19:11:34.503Z,65.12
2022-11-13T19:14:41.254Z,64.35
2022-11-13T19:17:50.355Z,63.87
2022-11-13T19:20:58.275Z,64.66
2022-11-13T19:24:04.114Z,65.24
2022-11-13T19:27:09.752Z,65.01
2022-11-13T19:30:16.796Z,64.95
2022-11-13T19:33:22.779Z,64.80
2022-11-13T19:36:29.622Z,65.12
2022-11-13T19:39:35.651Z,64.90
2022-11-13T19:42:42.177Z,65.01
2022-11-13T19:45:49.234Z,65.46
2022-11-13T19:48:55.032Z,65.49
2022-11-13T19:52:00.843Z,64.52
2022-11-13T19:55:06.995Z,64.72
2022-11-13T19:58:12.950Z,64.91
2022-11-13T20:01:22.757Z,64.84
2022-11-13T20:04:28.916Z,64.70
2022-11-13T20:07:34.677Z,64.52
2022-11-13T20:10:40.365Z,64.56
2022-11-13T20:13:46.354Z,65.52
2022-11-13T20:16:53.163Z,66.01
2022-11-13T20:19:58.761Z,65.90
2022-11-13T20:23:03.957Z,65.48
2022-11-13T20:26:13.602Z,65.20
2022-11-13T20:29:19.190Z,65.20
2022-11-13T20:32:27.592Z,64.80
2022-11-13T20:35:33.636Z,64.85
2022-11-13T20:38:39.823Z,64.23
2022-11-13T20:41:45.294Z,63.86
2022-11-13T20:44:50.970Z,63.68
2022-11-13T20:47:58.096Z,63.44
2022-11-13T20:51:08.304Z,63.37
2022-11-13T20:54:14.004Z,63.21
2022-11-13T20:57:21.350Z,63.09
2022-11-13T21:00:27.102Z,62.97
2022-11-13T21:03:39.913Z,63.01
2022-11-13T21:06:47.333Z,62.98
2022-11-13T21:09:52.896Z,62.90
2022-11-13T21:12:58.853Z,63.60
2022-11-13T21:16:06.808Z,64.33
2022-11-13T21:19:14.290Z,64.25
2022-11-13T21:22:20.060Z,63.69
2022-11-13T21:25:25.398Z,63.22
2022-11-13T21:28:33.682Z,62.94
2022-11-13T21:31:39.304Z,63.07
2022-11-13T21:34:46.552Z,63.26
2022-11-13T21:37:51.981Z,63.08
2022-11-13T21:41:14.618Z,63.05
2022-11-13T21:44:20.457Z,63.09
2022-11-13T21:47:26.216Z,63.23
2022-11-13T21:50:33.264Z,63.19
2022-11-13T21:53:39.745Z,63.22
2022-11-13T21:56:45.565Z,63.12
2022-11-13T21:59:51.594Z,63.28
2022-11-13T22:02:57.213Z,63.16
2022-11-13T22:06:19.536Z,62.90
2022-11-13T22:09:26.925Z,62.97
2022-11-13T22:12:32.732Z,62.67
2022-11-13T22:15:38.377Z,62.55
2022-11-13T22:18:43.907Z,62.64
2022-11-13T22:21:52.611Z,62.65
2022-11-13T22:24:58.061Z,62.64
2022-11-13T22:28:03.476Z,62.50
2022-11-13T22:31:12.660Z,62.72
2022-11-13T22:34:18.330Z,63.24
2022-11-13T22:37:25.169Z,63.24
2022-11-13T22:40:30.817Z,63.30
2022-11-13T22:43:40.209Z,63.37
2022-11-13T22:46:45.986Z,63.54
2022-11-13T22:49:51.697Z,63.73
2022-11-13T22:52:58.576Z,63.86
2022-11-13T22:56:05.937Z,63.88
2022-11-13T22:59:13.231Z,63.79
2022-11-13T23:02:19.055Z,63.89
2022-11-13T23:05:24.606Z,63.85
2022-11-13T23:08:33.261Z,63.89
2022-11-13T23:11:42.388Z,64.05
2022-11-13T23:14:47.906Z,64.03
2022-11-13T23:17:53.463Z,64.00
2022-11-13T23:20:59.044Z,64.12
2022-11-13T23:24:06.750Z,64.14
2022-11-13T23:27:13.111Z,64.38
2022-11-13T23:30:18.869Z,64.40
2022-11-13T23:33:24.998Z,64.40
2022-11-13T23:36:31.552Z,64.42
2022-11-13T23:39:38.657Z,64.54
2022-11-13T23:42:55.342Z,64.44
2022-11-13T23:46:01.227Z,64.39
2022-11-13T23:49:06.968Z,64.33
2022-11-13T23:52:12.566Z,64.32
2022-11-13T23:55:21.239Z,64.78
2022-11-13T23:58:27.219Z,64.83
